Martin, Pennsylvania
Current Conditions -  °F | °C
As of 4:53 AM on Saturday 20 Dec 2014 (Local Time) from KMGW Reporting Station
Overcast Overcast  
Wind Chill: 30°   Ceiling: 2000
Heat Index: 30°   Visibility: 10mi
Dew Point: 19°   Wind: 0mph
Humidity: 64%   Direction: NA
Pressure: 30.25"   Gusts: NA
Location:  39.81°N, 79.91°W
Report Text: KMGW 200953Z AUTO 00000KT 10SM OVC020 M01/M07 A3025 RMK AO2 SLP257 T10111072 TSNO
Loading
Personal Weather Stations






























Interactive Weather Map New forecast layout! Learn more

10-Day Weather Forecast

Advertisements
Track Severe Weather on mobile